createdAt,value
2023-05-05T20:08:11.195Z,92.80
2023-05-05T20:10:39.054Z,93.40
2023-05-05T20:13:06.989Z,93.40
2023-05-05T20:15:35.105Z,93.50
2023-05-05T20:18:03.056Z,93.50
2023-05-05T20:20:31.048Z,93.50
2023-05-05T20:22:59.013Z,93.50
2023-05-05T20:25:28.219Z,93.50
2023-05-05T20:27:56.058Z,93.50
2023-05-05T20:30:23.963Z,93.50
2023-05-05T20:32:51.941Z,93.40
2023-05-05T20:35:20.104Z,93.40
2023-05-05T20:37:48.571Z,93.40
2023-05-05T20:40:16.608Z,93.30
2023-05-05T20:42:46.011Z,93.30
2023-05-05T20:45:14.111Z,93.40
2023-05-05T20:47:42.109Z,93.40
2023-05-05T20:50:11.361Z,93.50
2023-05-05T20:52:39.570Z,93.50
2023-05-05T20:55:08.238Z,93.70
2023-05-05T20:57:36.140Z,93.40
2023-05-05T21:00:06.635Z,93.30
2023-05-05T21:02:34.676Z,93.20
2023-05-05T21:05:03.177Z,93.30
2023-05-05T21:07:33.135Z,93.00
2023-05-05T21:10:01.146Z,93.00
2023-05-05T21:12:29.973Z,92.70
2023-05-05T21:14:58.786Z,92.60
2023-05-05T21:17:28.274Z,92.60
2023-05-05T21:19:57.397Z,92.50
2023-05-05T21:22:25.325Z,92.60
2023-05-05T21:24:53.222Z,92.40
2023-05-05T21:27:22.127Z,92.40
2023-05-05T21:29:51.956Z,92.40
2023-05-05T21:32:20.212Z,92.40
2023-05-05T21:34:49.548Z,92.30
2023-05-05T21:37:17.418Z,92.30
2023-05-05T21:39:45.260Z,92.20
2023-05-05T21:42:13.108Z,92.30
2023-05-05T21:44:40.976Z,92.30
2023-05-05T21:47:08.984Z,92.20
2023-05-05T21:49:37.020Z,92.30
2023-05-05T21:52:06.533Z,92.20
2023-05-05T21:54:34.427Z,92.20
2023-05-05T21:57:02.762Z,92.20
2023-05-05T21:59:30.650Z,92.20
2023-05-05T22:01:58.649Z,92.10
2023-05-05T22:04:26.688Z,92.00
2023-05-05T22:06:54.609Z,92.10
2023-05-05T22:09:23.872Z,92.10
2023-05-05T22:11:51.915Z,92.20
2023-05-05T22:14:19.784Z,92.10
2023-05-05T22:16:47.688Z,92.20
2023-05-05T22:19:15.832Z,92.20
2023-05-05T22:21:43.657Z,92.20
2023-05-05T22:24:11.542Z,92.20
2023-05-05T22:26:43.089Z,92.20
2023-05-05T22:29:11.433Z,92.30
2023-05-05T22:31:39.540Z,92.30
2023-05-05T22:34:07.721Z,92.20
2023-05-05T22:36:35.597Z,92.30
2023-05-05T22:39:03.557Z,92.20
2023-05-05T22:41:31.415Z,92.20
2023-05-05T22:44:00.770Z,92.30
2023-05-05T22:46:28.651Z,92.30
2023-05-05T22:48:56.588Z,92.30
2023-05-05T22:51:24.519Z,92.30
2023-05-05T22:53:52.391Z,92.20
2023-05-05T22:56:20.874Z,92.30
2023-05-05T22:58:48.874Z,92.40
2023-05-05T23:01:18.117Z,92.30
2023-05-05T23:03:46.031Z,92.20
